sensor_id;sensor_type;location;lat;lon;timestamp;P1;durP1;ratioP1;P2;durP2;ratioP2
51124;SDS011;37163;55.556;39.108;2022-12-18T00:05:15;10.73;;;5.13;;
51124;SDS011;37163;55.556;39.108;2022-12-18T00:07:42;12.15;;;5.95;;
51124;SDS011;37163;55.556;39.108;2022-12-18T00:10:09;11.35;;;5.75;;
51124;SDS011;37163;55.556;39.108;2022-12-18T00:12:35;9.85;;;5.25;;
51124;SDS011;37163;55.556;39.108;2022-12-18T00:15:02;12.02;;;6.72;;
51124;SDS011;37163;55.556;39.108;2022-12-18T00:17:30;10.45;;;4.85;;
51124;SDS011;37163;55.556;39.108;2022-12-18T00:19:56;10.40;;;5.55;;
51124;SDS011;37163;55.556;39.108;2022-12-18T00:22:23;13.07;;;6.30;;
51124;SDS011;37163;55.556;39.108;2022-12-18T00:24:54;12.30;;;5.55;;
51124;SDS011;37163;55.556;39.108;2022-12-18T00:35:01;9.40;;;5.22;;
51124;SDS011;37163;55.556;39.108;2022-12-18T00:37:28;12.23;;;6.70;;
51124;SDS011;37163;55.556;39.108;2022-12-18T00:49:33;12.27;;;5.22;;
51124;SDS011;37163;55.556;39.108;2022-12-18T00:52:01;13.20;;;7.03;;
51124;SDS011;37163;55.556;39.108;2022-12-18T01:04:34;14.13;;;6.45;;
51124;SDS011;37163;55.556;39.108;2022-12-18T01:07:00;9.63;;;5.55;;
51124;SDS011;37163;55.556;39.108;2022-12-18T01:20:10;14.55;;;7.53;;
51124;SDS011;37163;55.556;39.108;2022-12-18T01:22:43;15.00;;;8.20;;
51124;SDS011;37163;55.556;39.108;2022-12-18T01:30:52;11.98;;;6.00;;
51124;SDS011;37163;55.556;39.108;2022-12-18T01:33:20;10.10;;;5.80;;
51124;SDS011;37163;55.556;39.108;2022-12-18T01:35:46;10.55;;;5.47;;
51124;SDS011;37163;55.556;39.108;2022-12-18T01:46:13;13.10;;;5.38;;
51124;SDS011;37163;55.556;39.108;2022-12-18T01:48:40;10.23;;;5.95;;
51124;SDS011;37163;55.556;39.108;2022-12-18T01:51:08;11.57;;;6.38;;
51124;SDS011;37163;55.556;39.108;2022-12-18T01:53:36;10.90;;;6.28;;
51124;SDS011;37163;55.556;39.108;2022-12-18T01:56:03;12.02;;;6.50;;
51124;SDS011;37163;55.556;39.108;2022-12-18T01:58:31;11.93;;;6.53;;
51124;SDS011;37163;55.556;39.108;2022-12-18T02:01:23;10.70;;;6.88;;
51124;SDS011;37163;55.556;39.108;2022-12-18T02:03:49;11.90;;;6.53;;
51124;SDS011;37163;55.556;39.108;2022-12-18T02:24:45;10.55;;;5.93;;
51124;SDS011;37163;55.556;39.108;2022-12-18T02:30:08;10.45;;;5.97;;
51124;SDS011;37163;55.556;39.108;2022-12-18T02:32:41;7.75;;;4.28;;
51124;SDS011;37163;55.556;39.108;2022-12-18T02:35:13;10.23;;;5.13;;
51124;SDS011;37163;55.556;39.108;2022-12-18T02:37:43;14.52;;;6.30;;
51124;SDS011;37163;55.556;39.108;2022-12-18T02:40:11;9.50;;;5.00;;
51124;SDS011;37163;55.556;39.108;2022-12-18T02:42:41;9.35;;;5.57;;
51124;SDS011;37163;55.556;39.108;2022-12-18T02:45:09;11.85;;;5.40;;
51124;SDS011;37163;55.556;39.108;2022-12-18T02:47:38;8.13;;;4.68;;
51124;SDS011;37163;55.556;39.108;2022-12-18T03:08:45;8.40;;;3.70;;
51124;SDS011;37163;55.556;39.108;2022-12-18T03:21:36;9.40;;;5.22;;
51124;SDS011;37163;55.556;39.108;2022-12-18T03:24:08;9.82;;;4.63;;
51124;SDS011;37163;55.556;39.108;2022-12-18T03:26:36;6.93;;;4.07;;
51124;SDS011;37163;55.556;39.108;2022-12-18T03:29:07;9.32;;;4.38;;
51124;SDS011;37163;55.556;39.108;2022-12-18T03:31:39;9.75;;;4.57;;
51124;SDS011;37163;55.556;39.108;2022-12-18T03:34:12;7.78;;;4.47;;
51124;SDS011;37163;55.556;39.108;2022-12-18T03:36:45;11.13;;;5.32;;
51124;SDS011;37163;55.556;39.108;2022-12-18T03:39:19;9.40;;;4.60;;
51124;SDS011;37163;55.556;39.108;2022-12-18T03:54:34;9.05;;;4.10;;
51124;SDS011;37163;55.556;39.108;2022-12-18T03:57:10;8.73;;;4.40;;
51124;SDS011;37163;55.556;39.108;2022-12-18T04:10:21;6.43;;;3.53;;
51124;SDS011;37163;55.556;39.108;2022-12-18T04:12:48;7.90;;;3.95;;
51124;SDS011;37163;55.556;39.108;2022-12-18T04:15:15;7.45;;;3.95;;
51124;SDS011;37163;55.556;39.108;2022-12-18T04:17:51;12.00;;;4.53;;
51124;SDS011;37163;55.556;39.108;2022-12-18T04:20:22;10.25;;;4.90;;
51124;SDS011;37163;55.556;39.108;2022-12-18T04:22:48;8.00;;;4.18;;
51124;SDS011;37163;55.556;39.108;2022-12-18T04:25:14;8.30;;;4.07;;
51124;SDS011;37163;55.556;39.108;2022-12-18T04:31:20;11.88;;;5.15;;
51124;SDS011;37163;55.556;39.108;2022-12-18T04:33:47;8.20;;;3.78;;
51124;SDS011;37163;55.556;39.108;2022-12-18T04:36:13;7.53;;;4.10;;
51124;SDS011;37163;55.556;39.108;2022-12-18T04:38:40;12.52;;;6.35;;
51124;SDS011;37163;55.556;39.108;2022-12-18T04:41:12;9.52;;;4.40;;
51124;SDS011;37163;55.556;39.108;2022-12-18T04:50:39;10.82;;;4.75;;
51124;SDS011;37163;55.556;39.108;2022-12-18T04:53:06;8.25;;;3.65;;
51124;SDS011;37163;55.556;39.108;2022-12-18T04:55:32;11.73;;;4.63;;
51124;SDS011;37163;55.556;39.108;2022-12-18T04:57:59;12.32;;;4.88;;
51124;SDS011;37163;55.556;39.108;2022-12-18T05:00:25;11.77;;;4.13;;
51124;SDS011;37163;55.556;39.108;2022-12-18T05:06:57;6.07;;;3.75;;
51124;SDS011;37163;55.556;39.108;2022-12-18T05:09:24;6.25;;;3.38;;
51124;SDS011;37163;55.556;39.108;2022-12-18T05:11:51;8.52;;;4.03;;
51124;SDS011;37163;55.556;39.108;2022-12-18T05:14:17;9.73;;;4.70;;
51124;SDS011;37163;55.556;39.108;2022-12-18T05:16:43;11.10;;;4.70;;
51124;SDS011;37163;55.556;39.108;2022-12-18T05:22:26;8.00;;;4.55;;
51124;SDS011;37163;55.556;39.108;2022-12-18T05:24:53;11.20;;;4.85;;
51124;SDS011;37163;55.556;39.108;2022-12-18T05:27:19;7.32;;;3.85;;
51124;SDS011;37163;55.556;39.108;2022-12-18T05:40:35;13.05;;;5.65;;
51124;SDS011;37163;55.556;39.108;2022-12-18T05:43:05;7.93;;;4.30;;
51124;SDS011;37163;55.556;39.108;2022-12-18T05:45:32;7.65;;;3.75;;
51124;SDS011;37163;55.556;39.108;2022-12-18T05:55:00;6.47;;;2.78;;
51124;SDS011;37163;55.556;39.108;2022-12-18T05:57:26;12.45;;;5.15;;
51124;SDS011;37163;55.556;39.108;2022-12-18T05:59:52;9.27;;;3.30;;
51124;SDS011;37163;55.556;39.108;2022-12-18T06:02:19;8.30;;;4.45;;
51124;SDS011;37163;55.556;39.108;2022-12-18T06:04:46;7.32;;;3.47;;
51124;SDS011;37163;55.556;39.108;2022-12-18T06:07:13;10.43;;;4.32;;
51124;SDS011;37163;55.556;39.108;2022-12-18T06:09:39;8.15;;;3.45;;
51124;SDS011;37163;55.556;39.108;2022-12-18T06:12:08;9.18;;;5.13;;
51124;SDS011;37163;55.556;39.108;2022-12-18T06:14:36;9.68;;;4.57;;
51124;SDS011;37163;55.556;39.108;2022-12-18T06:17:03;7.55;;;3.53;;
51124;SDS011;37163;55.556;39.108;2022-12-18T06:19:29;8.27;;;3.88;;
51124;SDS011;37163;55.556;39.108;2022-12-18T06:36:52;5.75;;;3.05;;
51124;SDS011;37163;55.556;39.108;2022-12-18T06:46:54;8.52;;;3.35;;
51124;SDS011;37163;55.556;39.108;2022-12-18T06:49:22;9.80;;;3.97;;
51124;SDS011;37163;55.556;39.108;2022-12-18T06:51:48;5.80;;;2.45;;
51124;SDS011;37163;55.556;39.108;2022-12-18T06:54:14;12.27;;;5.30;;
51124;SDS011;37163;55.556;39.108;2022-12-18T06:56:41;9.20;;;3.55;;
51124;SDS011;37163;55.556;39.108;2022-12-18T06:59:08;6.32;;;3.42;;
51124;SDS011;37163;55.556;39.108;2022-12-18T07:04:56;4.15;;;2.50;;
51124;SDS011;37163;55.556;39.108;2022-12-18T07:07:22;8.07;;;3.83;;
51124;SDS011;37163;55.556;39.108;2022-12-18T07:09:51;4.13;;;2.28;;
51124;SDS011;37163;55.556;39.108;2022-12-18T07:12:18;7.18;;;3.38;;
51124;SDS011;37163;55.556;39.108;2022-12-18T07:14:44;8.80;;;4.03;;
51124;SDS011;37163;55.556;39.108;2022-12-18T07:17:10;6.70;;;3.42;;
51124;SDS011;37163;55.556;39.108;2022-12-18T07:19:37;10.13;;;4.93;;
51124;SDS011;37163;55.556;39.108;2022-12-18T07:30:10;5.82;;;2.80;;
51124;SDS011;37163;55.556;39.108;2022-12-18T07:39:16;8.25;;;3.83;;
51124;SDS011;37163;55.556;39.108;2022-12-18T07:41:42;10.13;;;4.13;;
51124;SDS011;37163;55.556;39.108;2022-12-18T07:47:07;6.95;;;3.63;;
51124;SDS011;37163;55.556;39.108;2022-12-18T07:49:33;6.68;;;3.28;;
51124;SDS011;37163;55.556;39.108;2022-12-18T07:52:00;8.07;;;4.15;;
51124;SDS011;37163;55.556;39.108;2022-12-18T07:54:27;12.30;;;4.90;;
51124;SDS011;37163;55.556;39.108;2022-12-18T07:56:53;5.32;;;2.50;;
51124;SDS011;37163;55.556;39.108;2022-12-18T07:59:20;6.55;;;3.17;;
51124;SDS011;37163;55.556;39.108;2022-12-18T08:01:47;7.72;;;3.90;;
51124;SDS011;37163;55.556;39.108;2022-12-18T08:04:14;7.00;;;3.13;;
51124;SDS011;37163;55.556;39.108;2022-12-18T08:17:24;8.38;;;3.13;;
51124;SDS011;37163;55.556;39.108;2022-12-18T08:19:50;3.25;;;1.60;;
51124;SDS011;37163;55.556;39.108;2022-12-18T08:26:04;8.70;;;4.18;;
51124;SDS011;37163;55.556;39.108;2022-12-18T08:31:47;8.85;;;3.67;;
51124;SDS011;37163;55.556;39.108;2022-12-18T08:37:18;8.10;;;3.42;;
51124;SDS011;37163;55.556;39.108;2022-12-18T08:39:44;5.82;;;2.78;;
51124;SDS011;37163;55.556;39.108;2022-12-18T08:42:10;9.32;;;4.82;;
51124;SDS011;37163;55.556;39.108;2022-12-18T08:53:43;10.52;;;4.70;;
51124;SDS011;37163;55.556;39.108;2022-12-18T08:56:12;10.00;;;4.88;;
51124;SDS011;37163;55.556;39.108;2022-12-18T09:02:22;11.45;;;4.55;;
51124;SDS011;37163;55.556;39.108;2022-12-18T09:04:48;6.65;;;3.78;;
51124;SDS011;37163;55.556;39.108;2022-12-18T09:21:55;8.38;;;2.78;;
51124;SDS011;37163;55.556;39.108;2022-12-18T09:24:24;5.15;;;2.65;;
51124;SDS011;37163;55.556;39.108;2022-12-18T09:26:52;8.95;;;3.63;;
51124;SDS011;37163;55.556;39.108;2022-12-18T09:29:21;6.47;;;2.90;;
51124;SDS011;37163;55.556;39.108;2022-12-18T09:35:53;8.43;;;4.13;;
51124;SDS011;37163;55.556;39.108;2022-12-18T09:38:20;7.60;;;4.05;;
51124;SDS011;37163;55.556;39.108;2022-12-18T09:40:49;8.27;;;4.10;;
51124;SDS011;37163;55.556;39.108;2022-12-18T09:51:37;7.07;;;3.88;;
51124;SDS011;37163;55.556;39.108;2022-12-18T09:54:10;6.65;;;3.75;;
51124;SDS011;37163;55.556;39.108;2022-12-18T09:59:58;10.80;;;3.78;;
51124;SDS011;37163;55.556;39.108;2022-12-18T10:02:37;7.45;;;2.88;;
51124;SDS011;37163;55.556;39.108;2022-12-18T10:15:40;8.40;;;3.35;;
51124;SDS011;37163;55.556;39.108;2022-12-18T10:21:00;9.57;;;4.72;;
51124;SDS011;37163;55.556;39.108;2022-12-18T10:30:33;11.65;;;3.83;;
51124;SDS011;37163;55.556;39.108;2022-12-18T10:40:16;8.55;;;4.28;;
51124;SDS011;37163;55.556;39.108;2022-12-18T10:42:43;8.68;;;4.50;;
51124;SDS011;37163;55.556;39.108;2022-12-18T10:53:19;10.85;;;4.57;;
51124;SDS011;37163;55.556;39.108;2022-12-18T10:55:53;8.40;;;4.03;;
51124;SDS011;37163;55.556;39.108;2022-12-18T11:04:57;5.75;;;3.45;;
51124;SDS011;37163;55.556;39.108;2022-12-18T11:07:24;6.03;;;3.17;;
51124;SDS011;37163;55.556;39.108;2022-12-18T11:09:59;7.00;;;3.55;;
51124;SDS011;37163;55.556;39.108;2022-12-18T11:15:37;8.77;;;3.92;;
51124;SDS011;37163;55.556;39.108;2022-12-18T11:18:14;7.15;;;3.70;;
51124;SDS011;37163;55.556;39.108;2022-12-18T11:20:42;8.77;;;3.53;;
51124;SDS011;37163;55.556;39.108;2022-12-18T11:38:46;7.55;;;4.20;;
51124;SDS011;37163;55.556;39.108;2022-12-18T11:41:19;6.45;;;2.65;;
51124;SDS011;37163;55.556;39.108;2022-12-18T11:51:25;6.28;;;3.15;;
51124;SDS011;37163;55.556;39.108;2022-12-18T11:53:55;5.75;;;2.80;;
51124;SDS011;37163;55.556;39.108;2022-12-18T12:03:44;6.60;;;3.10;;
51124;SDS011;37163;55.556;39.108;2022-12-18T12:18:04;9.90;;;3.47;;
51124;SDS011;37163;55.556;39.108;2022-12-18T12:33:22;6.43;;;3.15;;
51124;SDS011;37163;55.556;39.108;2022-12-18T12:43:03;5.53;;;2.22;;
51124;SDS011;37163;55.556;39.108;2022-12-18T13:01:59;3.08;;;1.63;;
51124;SDS011;37163;55.556;39.108;2022-12-18T13:31:12;4.53;;;2.28;;
51124;SDS011;37163;55.556;39.108;2022-12-18T13:41:49;7.07;;;1.98;;
51124;SDS011;37163;55.556;39.108;2022-12-18T13:50:41;10.32;;;3.55;;
51124;SDS011;37163;55.556;39.108;2022-12-18T13:59:44;6.82;;;2.88;;
51124;SDS011;37163;55.556;39.108;2022-12-18T14:02:14;5.78;;;2.30;;
51124;SDS011;37163;55.556;39.108;2022-12-18T14:08:54;8.73;;;2.83;;
51124;SDS011;37163;55.556;39.108;2022-12-18T14:11:22;5.43;;;2.40;;
51124;SDS011;37163;55.556;39.108;2022-12-18T14:13:49;6.88;;;2.70;;
51124;SDS011;37163;55.556;39.108;2022-12-18T14:16:19;6.10;;;2.03;;
51124;SDS011;37163;55.556;39.108;2022-12-18T14:21:46;6.82;;;3.40;;
51124;SDS011;37163;55.556;39.108;2022-12-18T14:27:30;6.97;;;2.83;;
51124;SDS011;37163;55.556;39.108;2022-12-18T14:29:56;5.10;;;2.50;;
51124;SDS011;37163;55.556;39.108;2022-12-18T14:32:27;7.63;;;2.75;;
51124;SDS011;37163;55.556;39.108;2022-12-18T14:35:14;4.25;;;2.38;;
51124;SDS011;37163;55.556;39.108;2022-12-18T14:40:42;5.82;;;2.55;;
51124;SDS011;37163;55.556;39.108;2022-12-18T14:43:12;7.18;;;3.60;;
51124;SDS011;37163;55.556;39.108;2022-12-18T14:45:39;5.65;;;1.92;;
51124;SDS011;37163;55.556;39.108;2022-12-18T14:48:16;6.38;;;2.63;;
51124;SDS011;37163;55.556;39.108;2022-12-18T15:07:43;6.60;;;2.30;;
51124;SDS011;37163;55.556;39.108;2022-12-18T15:10:16;7.82;;;2.85;;
51124;SDS011;37163;55.556;39.108;2022-12-18T15:12:49;8.30;;;2.85;;
51124;SDS011;37163;55.556;39.108;2022-12-18T15:26:02;5.25;;;2.30;;
51124;SDS011;37163;55.556;39.108;2022-12-18T15:33:42;7.13;;;3.03;;
51124;SDS011;37163;55.556;39.108;2022-12-18T15:36:29;6.22;;;3.10;;
51124;SDS011;37163;55.556;39.108;2022-12-18T15:38:57;6.35;;;2.47;;
51124;SDS011;37163;55.556;39.108;2022-12-18T15:41:23;5.25;;;2.50;;
51124;SDS011;37163;55.556;39.108;2022-12-18T15:51:36;2.95;;;1.45;;
51124;SDS011;37163;55.556;39.108;2022-12-18T15:54:04;4.38;;;1.50;;
51124;SDS011;37163;55.556;39.108;2022-12-18T15:56:32;6.68;;;2.78;;
51124;SDS011;37163;55.556;39.108;2022-12-18T16:05:17;4.28;;;1.92;;
51124;SDS011;37163;55.556;39.108;2022-12-18T16:18:18;7.05;;;2.75;;
51124;SDS011;37163;55.556;39.108;2022-12-18T16:20:45;8.68;;;3.17;;
51124;SDS011;37163;55.556;39.108;2022-12-18T16:23:18;5.93;;;3.00;;
51124;SDS011;37163;55.556;39.108;2022-12-18T16:25:45;3.00;;;1.20;;
51124;SDS011;37163;55.556;39.108;2022-12-18T16:28:12;6.13;;;2.42;;
51124;SDS011;37163;55.556;39.108;2022-12-18T16:30:38;7.70;;;2.15;;
51124;SDS011;37163;55.556;39.108;2022-12-18T16:33:05;5.72;;;2.55;;
51124;SDS011;37163;55.556;39.108;2022-12-18T16:35:32;3.25;;;1.55;;
51124;SDS011;37163;55.556;39.108;2022-12-18T16:37:58;5.90;;;2.85;;
51124;SDS011;37163;55.556;39.108;2022-12-18T16:40:26;4.03;;;2.40;;
51124;SDS011;37163;55.556;39.108;2022-12-18T16:52:51;1.48;;;0.70;;
51124;SDS011;37163;55.556;39.108;2022-12-18T16:55:21;3.22;;;1.40;;
51124;SDS011;37163;55.556;39.108;2022-12-18T16:57:47;3.83;;;2.10;;
51124;SDS011;37163;55.556;39.108;2022-12-18T17:00:14;7.47;;;2.80;;
51124;SDS011;37163;55.556;39.108;2022-12-18T17:02:41;0.70;;;0.60;;
51124;SDS011;37163;55.556;39.108;2022-12-18T17:07:53;4.13;;;2.00;;
51124;SDS011;37163;55.556;39.108;2022-12-18T17:10:20;3.03;;;2.42;;
51124;SDS011;37163;55.556;39.108;2022-12-18T17:16:55;7.85;;;2.33;;
51124;SDS011;37163;55.556;39.108;2022-12-18T17:19:23;6.45;;;2.78;;
51124;SDS011;37163;55.556;39.108;2022-12-18T17:21:49;6.25;;;1.58;;
51124;SDS011;37163;55.556;39.108;2022-12-18T17:27:57;4.10;;;2.17;;
51124;SDS011;37163;55.556;39.108;2022-12-18T17:30:23;6.25;;;2.55;;
51124;SDS011;37163;55.556;39.108;2022-12-18T17:32:49;1.95;;;1.08;;
51124;SDS011;37163;55.556;39.108;2022-12-18T17:38:13;6.03;;;2.92;;
51124;SDS011;37163;55.556;39.108;2022-12-18T17:40:39;5.95;;;2.22;;
51124;SDS011;37163;55.556;39.108;2022-12-18T17:43:06;8.40;;;3.45;;
51124;SDS011;37163;55.556;39.108;2022-12-18T17:45:35;14.52;;;4.22;;
51124;SDS011;37163;55.556;39.108;2022-12-18T17:48:03;10.60;;;3.45;;
51124;SDS011;37163;55.556;39.108;2022-12-18T17:50:30;5.47;;;2.65;;
51124;SDS011;37163;55.556;39.108;2022-12-18T18:05:29;14.55;;;4.03;;
51124;SDS011;37163;55.556;39.108;2022-12-18T18:07:56;16.50;;;4.88;;
51124;SDS011;37163;55.556;39.108;2022-12-18T18:10:22;16.60;;;5.45;;
51124;SDS011;37163;55.556;39.108;2022-12-18T18:12:58;15.00;;;4.80;;
51124;SDS011;37163;55.556;39.108;2022-12-18T18:15:43;10.18;;;3.55;;
51124;SDS011;37163;55.556;39.108;2022-12-18T18:21:32;12.82;;;4.68;;
51124;SDS011;37163;55.556;39.108;2022-12-18T18:27:40;9.35;;;4.10;;
51124;SDS011;37163;55.556;39.108;2022-12-18T18:30:06;11.25;;;4.93;;
51124;SDS011;37163;55.556;39.108;2022-12-18T18:32:34;10.15;;;4.35;;
51124;SDS011;37163;55.556;39.108;2022-12-18T18:35:05;17.80;;;5.93;;
51124;SDS011;37163;55.556;39.108;2022-12-18T18:37:33;11.80;;;3.10;;
51124;SDS011;37163;55.556;39.108;2022-12-18T18:39:59;10.82;;;3.70;;
51124;SDS011;37163;55.556;39.108;2022-12-18T18:46:12;4.07;;;1.75;;
51124;SDS011;37163;55.556;39.108;2022-12-18T18:48:39;5.97;;;2.88;;
51124;SDS011;37163;55.556;39.108;2022-12-18T18:55:25;8.98;;;3.38;;
51124;SDS011;37163;55.556;39.108;2022-12-18T18:57:51;5.82;;;2.55;;
51124;SDS011;37163;55.556;39.108;2022-12-18T19:00:17;6.28;;;2.85;;
51124;SDS011;37163;55.556;39.108;2022-12-18T19:02:44;11.15;;;3.25;;
51124;SDS011;37163;55.556;39.108;2022-12-18T19:07:41;7.60;;;3.25;;
51124;SDS011;37163;55.556;39.108;2022-12-18T19:10:07;7.35;;;3.38;;
51124;SDS011;37163;55.556;39.108;2022-12-18T19:12:35;5.95;;;2.63;;
51124;SDS011;37163;55.556;39.108;2022-12-18T19:19:02;5.82;;;3.05;;
51124;SDS011;37163;55.556;39.108;2022-12-18T19:21:28;2.35;;;1.10;;
51124;SDS011;37163;55.556;39.108;2022-12-18T19:23:57;4.70;;;2.05;;
51124;SDS011;37163;55.556;39.108;2022-12-18T19:26:24;3.55;;;1.42;;
51124;SDS011;37163;55.556;39.108;2022-12-18T19:28:51;9.70;;;4.45;;
51124;SDS011;37163;55.556;39.108;2022-12-18T19:31:17;12.05;;;2.88;;
51124;SDS011;37163;55.556;39.108;2022-12-18T20:00:51;3.05;;;1.38;;
51124;SDS011;37163;55.556;39.108;2022-12-18T20:03:17;6.03;;;2.60;;
51124;SDS011;37163;55.556;39.108;2022-12-18T20:09:01;4.68;;;2.55;;
51124;SDS011;37163;55.556;39.108;2022-12-18T20:11:30;2.85;;;1.50;;
51124;SDS011;37163;55.556;39.108;2022-12-18T20:22:49;2.33;;;1.48;;
51124;SDS011;37163;55.556;39.108;2022-12-18T20:25:15;5.60;;;2.25;;
51124;SDS011;37163;55.556;39.108;2022-12-18T20:27:42;7.07;;;3.33;;
51124;SDS011;37163;55.556;39.108;2022-12-18T20:30:08;8.88;;;2.50;;
51124;SDS011;37163;55.556;39.108;2022-12-18T20:32:35;0.85;;;0.52;;
51124;SDS011;37163;55.556;39.108;2022-12-18T20:35:02;8.00;;;2.80;;
51124;SDS011;37163;55.556;39.108;2022-12-18T20:37:29;5.60;;;2.50;;
51124;SDS011;37163;55.556;39.108;2022-12-18T21:00:20;2.22;;;1.02;;
51124;SDS011;37163;55.556;39.108;2022-12-18T21:02:47;4.70;;;1.17;;
51124;SDS011;37163;55.556;39.108;2022-12-18T21:13:18;3.78;;;1.55;;
51124;SDS011;37163;55.556;39.108;2022-12-18T21:15:44;4.20;;;2.38;;
51124;SDS011;37163;55.556;39.108;2022-12-18T21:22:36;3.83;;;1.25;;
51124;SDS011;37163;55.556;39.108;2022-12-18T21:25:06;3.88;;;1.80;;
51124;SDS011;37163;55.556;39.108;2022-12-18T21:27:34;4.18;;;1.75;;
51124;SDS011;37163;55.556;39.108;2022-12-18T21:30:00;4.80;;;2.25;;
51124;SDS011;37163;55.556;39.108;2022-12-18T21:32:29;8.10;;;2.30;;
51124;SDS011;37163;55.556;39.108;2022-12-18T21:34:55;3.05;;;1.35;;
51124;SDS011;37163;55.556;39.108;2022-12-18T21:40:39;5.38;;;2.08;;
51124;SDS011;37163;55.556;39.108;2022-12-18T21:43:05;2.33;;;1.42;;
51124;SDS011;37163;55.556;39.108;2022-12-18T22:03:43;0.40;;;0.05;;
51124;SDS011;37163;55.556;39.108;2022-12-18T22:06:10;6.60;;;2.83;;
51124;SDS011;37163;55.556;39.108;2022-12-18T22:08:37;5.47;;;1.85;;
51124;SDS011;37163;55.556;39.108;2022-12-18T22:11:03;3.87;;;1.67;;
51124;SDS011;37163;55.556;39.108;2022-12-18T22:13:30;2.63;;;1.45;;
51124;SDS011;37163;55.556;39.108;2022-12-18T22:16:05;5.65;;;2.05;;
51124;SDS011;37163;55.556;39.108;2022-12-18T22:21:49;1.00;;;0.28;;
51124;SDS011;37163;55.556;39.108;2022-12-18T22:27:45;4.10;;;1.70;;
51124;SDS011;37163;55.556;39.108;2022-12-18T22:30:31;5.88;;;1.73;;
51124;SDS011;37163;55.556;39.108;2022-12-18T22:32:58;2.40;;;1.37;;
51124;SDS011;37163;55.556;39.108;2022-12-18T22:35:24;8.87;;;2.30;;
51124;SDS011;37163;55.556;39.108;2022-12-18T22:37:51;6.20;;;2.57;;
51124;SDS011;37163;55.556;39.108;2022-12-18T22:43:34;6.77;;;2.07;;
51124;SDS011;37163;55.556;39.108;2022-12-18T22:46:03;2.33;;;1.42;;
51124;SDS011;37163;55.556;39.108;2022-12-18T22:48:30;5.85;;;2.42;;
51124;SDS011;37163;55.556;39.108;2022-12-18T22:50:56;5.77;;;2.50;;
51124;SDS011;37163;55.556;39.108;2022-12-18T22:53:22;8.07;;;2.10;;
51124;SDS011;37163;55.556;39.108;2022-12-18T22:55:49;3.70;;;1.77;;
51124;SDS011;37163;55.556;39.108;2022-12-18T22:58:15;6.17;;;2.93;;
51124;SDS011;37163;55.556;39.108;2022-12-18T23:00:41;4.70;;;2.43;;
51124;SDS011;37163;55.556;39.108;2022-12-18T23:06:39;6.90;;;2.53;;
51124;SDS011;37163;55.556;39.108;2022-12-18T23:09:06;3.53;;;1.33;;
51124;SDS011;37163;55.556;39.108;2022-12-18T23:11:32;9.37;;;1.33;;
51124;SDS011;37163;55.556;39.108;2022-12-18T23:16:46;3.07;;;1.70;;
51124;SDS011;37163;55.556;39.108;2022-12-18T23:19:13;8.83;;;3.33;;
51124;SDS011;37163;55.556;39.108;2022-12-18T23:21:39;7.90;;;2.70;;
51124;SDS011;37163;55.556;39.108;2022-12-18T23:29:49;3.10;;;1.40;;
51124;SDS011;37163;55.556;39.108;2022-12-18T23:32:15;1.40;;;0.37;;
51124;SDS011;37163;55.556;39.108;2022-12-18T23:38:24;3.67;;;2.00;;
51124;SDS011;37163;55.556;39.108;2022-12-18T23:40:53;4.73;;;1.43;;
51124;SDS011;37163;55.556;39.108;2022-12-18T23:43:20;4.53;;;1.93;;
51124;SDS011;37163;55.556;39.108;2022-12-18T23:52:33;1.73;;;1.17;;
51124;SDS011;37163;55.556;39.108;2022-12-18T23:54:59;4.43;;;1.77;;
